createdAt,value
2018-08-30T00:01:03.773Z,15.57
2018-08-30T00:04:28.310Z,15.29
2018-08-30T00:06:10.398Z,14.97
2018-08-30T00:07:47.390Z,14.78
2018-08-30T00:09:27.642Z,14.65
2018-08-30T00:11:03.548Z,14.55
2018-08-30T00:12:42.195Z,14.46
2018-08-30T00:14:19.062Z,14.38
2018-08-30T00:15:58.510Z,14.29
2018-08-30T00:17:37.626Z,14.17
2018-08-30T00:20:57.632Z,14.12
2018-08-30T00:22:35.506Z,14.07
2018-08-30T00:24:10.682Z,14.00
2018-08-30T00:25:46.290Z,13.93
2018-08-30T00:27:23.403Z,13.82
2018-08-30T00:28:58.594Z,13.79
2018-08-30T00:30:39.719Z,13.68
2018-08-30T00:32:18.056Z,13.68
2018-08-30T00:34:04.579Z,13.61
2018-08-30T00:35:41.550Z,13.58
2018-08-30T00:37:16.884Z,13.54
2018-08-30T00:38:53.504Z,13.46
2018-08-30T00:40:31.871Z,13.44
2018-08-30T00:42:08.376Z,13.40
2018-08-30T00:43:43.601Z,13.40
2018-08-30T00:45:20.289Z,13.39
2018-08-30T00:46:57.205Z,13.35
2018-08-30T00:48:37.553Z,13.35
2018-08-30T00:50:14.540Z,13.34
2018-08-30T00:51:54.697Z,13.38
2018-08-30T00:53:33.467Z,13.33
2018-08-30T00:55:09.887Z,13.33
2018-08-30T00:56:51.358Z,13.33
2018-08-30T00:58:33.736Z,13.33
2018-08-30T01:00:12.922Z,13.31
2018-08-30T01:01:48.073Z,13.30
2018-08-30T01:03:31.352Z,13.29
2018-08-30T01:05:07.641Z,13.28
2018-08-30T01:06:45.268Z,13.27
2018-08-30T01:08:24.781Z,13.32
2018-08-30T01:10:05.883Z,13.33
2018-08-30T01:11:44.288Z,13.34
2018-08-30T01:13:20.624Z,13.31
2018-08-30T01:14:55.772Z,13.27
2018-08-30T01:16:31.151Z,13.26
2018-08-30T01:18:10.153Z,13.23
2018-08-30T01:19:46.162Z,13.20
2018-08-30T01:21:35.590Z,13.17
2018-08-30T01:23:12.323Z,13.15
2018-08-30T01:24:49.001Z,13.14
2018-08-30T01:26:27.397Z,13.07
2018-08-30T01:28:05.021Z,13.07
2018-08-30T01:29:41.614Z,13.07
2018-08-30T01:31:18.090Z,13.05
2018-08-30T01:32:53.158Z,13.08
2018-08-30T01:34:29.246Z,13.04
2018-08-30T01:36:04.724Z,13.01
2018-08-30T01:37:40.047Z,13.02
2018-08-30T01:39:14.937Z,12.99
2018-08-30T01:40:49.849Z,12.99
2018-08-30T01:42:25.280Z,13.00
2018-08-30T01:44:02.049Z,12.94
2018-08-30T01:45:38.755Z,12.88
2018-08-30T01:47:13.867Z,12.87
2018-08-30T01:48:48.994Z,12.88
2018-08-30T01:50:24.362Z,12.80
2018-08-30T01:51:59.494Z,12.85
2018-08-30T01:53:35.873Z,12.78
2018-08-30T01:55:11.990Z,12.77
2018-08-30T01:56:47.244Z,12.76
2018-08-30T01:58:22.459Z,12.74
2018-08-30T01:59:57.750Z,12.74
2018-08-30T02:01:33.370Z,12.72
2018-08-30T02:03:08.272Z,12.68
2018-08-30T02:04:44.013Z,12.72
2018-08-30T02:06:19.192Z,12.74
2018-08-30T02:07:54.253Z,12.70
2018-08-30T02:09:30.746Z,12.68
2018-08-30T02:11:06.265Z,12.70
2018-08-30T02:12:42.164Z,12.68
2018-08-30T02:14:17.599Z,12.68
2018-08-30T02:15:53.614Z,12.65
2018-08-30T02:17:29.259Z,12.63
2018-08-30T02:19:04.557Z,12.59
2018-08-30T02:20:39.592Z,12.55
2018-08-30T02:22:14.890Z,12.53
2018-08-30T02:23:50.637Z,12.51
2018-08-30T02:25:26.942Z,12.55
2018-08-30T02:27:02.166Z,12.52
2018-08-30T02:28:38.414Z,12.54
2018-08-30T02:30:15.227Z,12.52
2018-08-30T02:31:50.689Z,12.55
2018-08-30T02:33:25.669Z,12.56
2018-08-30T02:35:00.978Z,12.51
2018-08-30T02:36:36.555Z,12.50
2018-08-30T02:38:11.651Z,12.52
2018-08-30T02:39:47.243Z,12.48
2018-08-30T02:41:22.276Z,12.49
2018-08-30T02:42:57.195Z,12.51
2018-08-30T02:44:32.539Z,12.49
2018-08-30T02:46:08.529Z,12.57
2018-08-30T02:47:45.022Z,12.53
2018-08-30T02:49:20.168Z,12.48
2018-08-30T02:50:56.276Z,12.44
2018-08-30T02:52:34.551Z,12.44
2018-08-30T02:54:09.898Z,12.46
2018-08-30T02:55:45.410Z,12.45
2018-08-30T02:57:21.498Z,12.40
2018-08-30T02:58:56.478Z,12.42
2018-08-30T03:00:32.095Z,12.38
2018-08-30T03:02:08.634Z,12.40
2018-08-30T03:03:53.421Z,12.42
2018-08-30T03:05:28.673Z,12.42
2018-08-30T03:07:03.968Z,12.38
2018-08-30T03:08:39.305Z,12.38
2018-08-30T03:10:14.431Z,12.44
2018-08-30T03:11:49.804Z,12.43
2018-08-30T03:13:25.047Z,12.44
2018-08-30T03:15:09.931Z,12.38
2018-08-30T03:16:48.730Z,12.39
2018-08-30T03:18:23.850Z,12.43
2018-08-30T03:19:59.389Z,12.40
2018-08-30T03:21:34.984Z,12.39
2018-08-30T03:23:10.214Z,12.39
2018-08-30T03:24:45.452Z,12.40
2018-08-30T03:26:21.097Z,12.39
2018-08-30T03:27:56.050Z,12.42
2018-08-30T03:29:30.990Z,12.37
2018-08-30T03:31:06.422Z,12.35
2018-08-30T03:32:41.611Z,12.33
2018-08-30T03:34:16.972Z,12.41
2018-08-30T03:35:52.033Z,12.36
2018-08-30T03:37:27.231Z,12.35
2018-08-30T03:39:02.212Z,12.34
2018-08-30T03:40:37.563Z,12.35
2018-08-30T03:42:12.962Z,12.40
2018-08-30T03:43:47.931Z,12.34
2018-08-30T03:45:23.018Z,12.34
2018-08-30T03:46:58.098Z,12.37
2018-08-30T03:48:32.993Z,12.39
2018-08-30T03:50:08.468Z,12.36
2018-08-30T03:51:43.534Z,12.38
2018-08-30T03:53:18.552Z,12.35
2018-08-30T03:54:54.862Z,12.38
2018-08-30T03:56:29.879Z,12.37
2018-08-30T03:58:05.621Z,12.36
2018-08-30T03:59:40.654Z,12.35
2018-08-30T04:01:16.908Z,12.35
2018-08-30T04:02:52.021Z,12.37
2018-08-30T04:04:28.014Z,12.38
2018-08-30T04:06:03.847Z,12.42
2018-08-30T04:07:39.184Z,12.35
2018-08-30T04:09:14.580Z,12.36
2018-08-30T04:10:51.741Z,12.36
2018-08-30T04:12:27.034Z,12.38
2018-08-30T04:14:05.706Z,12.38
2018-08-30T04:15:41.110Z,12.39
2018-08-30T04:17:16.222Z,12.37
2018-08-30T04:18:57.258Z,12.40
2018-08-30T04:20:32.655Z,12.39
2018-08-30T04:22:08.339Z,12.37
2018-08-30T04:23:43.354Z,12.35
2018-08-30T04:25:19.765Z,12.32
2018-08-30T04:26:55.065Z,12.37
2018-08-30T04:28:35.449Z,12.36
2018-08-30T04:30:10.566Z,12.35
2018-08-30T04:31:45.730Z,12.34
2018-08-30T04:33:20.739Z,12.34
2018-08-30T04:34:57.482Z,12.31
2018-08-30T04:36:35.698Z,12.30
2018-08-30T04:38:11.542Z,12.30
2018-08-30T04:39:46.776Z,12.29
2018-08-30T04:41:26.563Z,12.30
2018-08-30T04:43:01.865Z,12.25
2018-08-30T04:44:37.257Z,12.26
2018-08-30T04:46:12.248Z,12.28
2018-08-30T04:47:48.123Z,12.25
2018-08-30T04:49:23.799Z,12.26
2018-08-30T04:51:05.098Z,12.27
2018-08-30T04:52:40.293Z,12.26
2018-08-30T04:54:15.331Z,12.34
2018-08-30T04:55:50.654Z,12.29
2018-08-30T04:57:25.568Z,12.33
2018-08-30T04:59:00.817Z,12.37
2018-08-30T05:01:45.859Z,12.41
2018-08-30T05:03:23.374Z,12.32
2018-08-30T05:05:05.672Z,12.35
2018-08-30T05:06:47.575Z,12.35
2018-08-30T05:08:23.273Z,12.33
2018-08-30T05:10:07.673Z,12.30
2018-08-30T05:11:45.307Z,12.32
2018-08-30T05:13:22.141Z,12.34
2018-08-30T05:15:04.192Z,12.41
2018-08-30T05:16:40.558Z,12.37
2018-08-30T05:18:15.695Z,12.36
2018-08-30T05:19:52.017Z,12.36
2018-08-30T05:21:30.775Z,12.33
2018-08-30T05:23:06.281Z,12.31
2018-08-30T05:24:46.525Z,12.34
2018-08-30T05:26:28.547Z,12.36
2018-08-30T05:28:05.421Z,12.43
2018-08-30T05:29:41.161Z,12.43
2018-08-30T05:31:19.053Z,12.41
2018-08-30T05:32:55.234Z,12.47
2018-08-30T05:34:31.852Z,12.47
2018-08-30T05:36:07.850Z,12.49
2018-08-30T05:37:44.457Z,12.47
2018-08-30T05:39:22.059Z,12.48
2018-08-30T05:40:59.024Z,12.47
2018-08-30T05:42:38.518Z,12.46
2018-08-30T05:44:15.324Z,12.50
2018-08-30T05:45:53.603Z,12.44
2018-08-30T05:47:31.883Z,12.44
2018-08-30T05:49:07.561Z,12.48
2018-08-30T05:50:44.294Z,12.48
2018-08-30T05:52:20.096Z,12.51
2018-08-30T05:53:56.396Z,12.49
2018-08-30T05:55:34.065Z,12.55
2018-08-30T05:57:11.596Z,12.58
2018-08-30T05:58:47.724Z,12.58
2018-08-30T06:00:23.618Z,12.55
2018-08-30T06:01:59.502Z,12.50
2018-08-30T06:03:35.375Z,12.50
2018-08-30T06:05:12.031Z,12.52
2018-08-30T06:06:48.109Z,12.55
2018-08-30T06:08:25.266Z,12.53
2018-08-30T06:10:01.408Z,12.50
2018-08-30T06:11:37.394Z,12.56
2018-08-30T06:13:13.312Z,12.59
2018-08-30T06:14:49.563Z,12.51
2018-08-30T06:16:26.719Z,12.56
2018-08-30T06:18:03.101Z,12.60
2018-08-30T06:19:39.801Z,12.61
2018-08-30T06:21:15.811Z,12.63
2018-08-30T06:22:51.494Z,12.63
2018-08-30T06:24:28.471Z,12.73
2018-08-30T06:26:04.414Z,12.74
2018-08-30T06:27:40.875Z,12.66
2018-08-30T06:29:17.276Z,12.66
2018-08-30T06:30:53.110Z,12.68
2018-08-30T06:32:29.308Z,12.68
2018-08-30T06:34:05.910Z,12.76
2018-08-30T06:35:41.736Z,12.71
2018-08-30T06:37:19.217Z,12.69
2018-08-30T06:38:57.444Z,12.74
2018-08-30T06:40:33.703Z,12.73
2018-08-30T06:42:09.499Z,12.79
2018-08-30T06:43:49.066Z,12.79
2018-08-30T06:45:27.831Z,12.85
2018-08-30T06:47:07.724Z,12.89
2018-08-30T06:48:44.560Z,12.98
2018-08-30T06:50:20.555Z,12.93
2018-08-30T06:51:56.251Z,12.98
2018-08-30T06:53:34.358Z,12.92
2018-08-30T06:55:10.646Z,12.95
2018-08-30T06:56:46.713Z,12.92
2018-08-30T06:58:23.021Z,12.98
2018-08-30T07:00:05.360Z,12.95
2018-08-30T07:01:41.200Z,12.89
2018-08-30T07:03:17.623Z,12.91
2018-08-30T07:04:53.950Z,12.86
2018-08-30T07:06:29.719Z,12.91
2018-08-30T07:08:07.784Z,12.95
2018-08-30T07:09:44.523Z,12.89
2018-08-30T07:11:20.245Z,12.94
2018-08-30T07:12:56.529Z,12.91
2018-08-30T07:14:32.818Z,12.89
2018-08-30T07:16:08.729Z,12.97
2018-08-30T07:17:47.318Z,12.99
2018-08-30T07:19:25.727Z,12.97
2018-08-30T07:21:02.144Z,12.96
2018-08-30T07:22:38.017Z,13.02
2018-08-30T07:24:13.506Z,13.11
2018-08-30T07:25:51.253Z,13.10
2018-08-30T07:27:28.261Z,13.04
2018-08-30T07:29:08.416Z,13.11
2018-08-30T07:30:47.655Z,13.06
2018-08-30T07:32:24.209Z,13.08
2018-08-30T07:34:00.636Z,13.01
2018-08-30T07:35:36.829Z,12.97
2018-08-30T07:37:14.015Z,13.01
2018-08-30T07:38:53.677Z,13.01
2018-08-30T07:40:30.690Z,13.16
2018-08-30T07:42:07.357Z,13.22
2018-08-30T07:43:44.344Z,13.26
2018-08-30T07:45:21.123Z,13.34
2018-08-30T07:47:00.731Z,13.18
2018-08-30T07:48:39.136Z,13.16
2018-08-30T07:50:15.740Z,13.25
2018-08-30T07:51:52.019Z,13.33
2018-08-30T07:53:28.510Z,13.14
2018-08-30T07:55:04.334Z,13.14
2018-08-30T07:56:40.205Z,13.25
2018-08-30T07:58:17.393Z,13.26
2018-08-30T07:59:53.346Z,13.22
2018-08-30T08:09:23.325Z,13.08
2018-08-30T08:10:59.680Z,13.15
2018-08-30T08:12:37.418Z,13.24
2018-08-30T08:14:14.136Z,13.20
2018-08-30T08:15:52.087Z,13.13
2018-08-30T08:17:28.179Z,12.98
2018-08-30T08:19:04.265Z,13.03
2018-08-30T08:20:41.015Z,13.02
2018-08-30T08:22:21.060Z,13.17
2018-08-30T08:23:57.981Z,13.16
2018-08-30T08:25:36.571Z,13.12
2018-08-30T08:27:13.903Z,13.23
2018-08-30T08:28:52.600Z,13.18
2018-08-30T08:30:31.182Z,13.32
2018-08-30T08:32:08.512Z,13.52
2018-08-30T08:33:46.399Z,13.75
2018-08-30T08:35:22.512Z,14.25
2018-08-30T08:37:00.438Z,14.34
2018-08-30T08:38:36.539Z,14.31
2018-08-30T08:40:14.680Z,14.23
2018-08-30T08:41:50.831Z,14.13
2018-08-30T08:43:27.247Z,13.97
2018-08-30T08:45:04.778Z,13.93
2018-08-30T08:46:41.224Z,13.88
2018-08-30T08:48:16.991Z,13.89
2018-08-30T08:49:53.357Z,13.75
2018-08-30T08:51:29.720Z,13.62
2018-08-30T08:53:09.620Z,13.47
2018-08-30T08:55:54.546Z,13.39
2018-08-30T08:57:29.964Z,13.29
2018-08-30T08:59:05.976Z,13.22
2018-08-30T09:00:42.749Z,13.32
2018-08-30T09:02:19.188Z,13.24
2018-08-30T09:03:55.517Z,13.22
2018-08-30T09:05:31.340Z,13.23
2018-08-30T09:07:08.546Z,13.24
2018-08-30T09:08:46.350Z,13.38
2018-08-30T09:10:23.591Z,13.69
2018-08-30T09:12:00.488Z,13.99
2018-08-30T09:13:36.268Z,13.93
2018-08-30T09:15:17.451Z,14.16
2018-08-30T09:16:54.140Z,14.21
2018-08-30T09:18:32.788Z,14.51
2018-08-30T09:20:11.356Z,14.58
2018-08-30T09:21:50.900Z,15.11
2018-08-30T09:23:26.960Z,15.39
2018-08-30T09:25:02.947Z,15.54
2018-08-30T09:26:39.789Z,15.41
2018-08-30T09:28:18.504Z,15.05
2018-08-30T09:29:55.188Z,14.92
2018-08-30T09:31:33.457Z,15.19
2018-08-30T09:33:09.995Z,15.22
2018-08-30T09:34:46.245Z,15.60
2018-08-30T09:36:23.146Z,15.65
2018-08-30T09:38:02.486Z,15.39
2018-08-30T09:39:40.326Z,15.25
2018-08-30T09:41:17.117Z,15.40
2018-08-30T09:42:53.107Z,15.26
2018-08-30T09:44:32.476Z,15.49
2018-08-30T09:46:18.751Z,15.43
2018-08-30T09:47:55.793Z,15.18
2018-08-30T09:49:35.062Z,15.18
2018-08-30T09:51:13.112Z,15.24
2018-08-30T09:52:53.287Z,15.56
2018-08-30T09:54:28.671Z,15.33
2018-08-30T09:56:05.013Z,15.38
2018-08-30T09:57:41.426Z,15.13
2018-08-30T09:59:16.660Z,15.12
2018-08-30T10:00:58.177Z,14.91
2018-08-30T10:02:35.987Z,14.61
2018-08-30T10:04:14.201Z,14.55
2018-08-30T10:05:49.711Z,14.89
2018-08-30T10:07:24.976Z,15.44
2018-08-30T10:09:03.321Z,15.64
2018-08-30T10:10:39.530Z,15.59
2018-08-30T10:12:17.316Z,16.16
2018-08-30T10:13:59.917Z,16.36
2018-08-30T10:15:35.246Z,16.68
2018-08-30T10:17:11.184Z,16.45
2018-08-30T10:18:46.809Z,16.41
2018-08-30T10:20:22.531Z,16.65
2018-08-30T10:21:58.696Z,16.33
2018-08-30T10:23:34.702Z,16.25
2018-08-30T10:25:09.722Z,16.02
2018-08-30T10:26:45.297Z,16.34
2018-08-30T10:28:20.957Z,16.55
2018-08-30T10:30:00.091Z,16.87
2018-08-30T10:31:35.613Z,17.07
2018-08-30T10:33:10.975Z,16.98
2018-08-30T10:34:49.973Z,16.64
2018-08-30T10:36:26.684Z,16.52
2018-08-30T10:38:06.418Z,16.38
2018-08-30T10:39:44.378Z,16.09
2018-08-30T10:41:25.862Z,15.82
2018-08-30T10:43:05.793Z,15.47
2018-08-30T10:44:44.401Z,15.59
2018-08-30T10:46:33.507Z,15.62
2018-08-30T10:48:19.051Z,15.63
2018-08-30T10:51:47.808Z,15.55
2018-08-30T10:53:26.434Z,15.74
2018-08-30T10:55:03.788Z,15.71
2018-08-30T10:56:40.292Z,15.57
2018-08-30T10:58:18.811Z,15.55
2018-08-30T10:59:58.361Z,15.36
2018-08-30T11:01:34.358Z,15.33
2018-08-30T11:03:09.560Z,15.53
2018-08-30T11:04:46.669Z,15.71
2018-08-30T11:06:26.886Z,16.16
2018-08-30T11:08:08.278Z,16.22
2018-08-30T11:09:43.990Z,16.66
2018-08-30T11:11:29.648Z,16.95
2018-08-30T11:13:17.270Z,17.11
2018-08-30T11:14:52.490Z,17.47
2018-08-30T11:16:28.091Z,17.78
2018-08-30T11:18:07.055Z,18.24
2018-08-30T11:19:42.296Z,18.69
2018-08-30T11:21:19.361Z,18.91
2018-08-30T11:22:56.224Z,18.73
2018-08-30T11:24:39.364Z,18.13
2018-08-30T11:26:18.420Z,17.98
2018-08-30T11:27:55.069Z,17.78
2018-08-30T11:29:36.508Z,17.73
2018-08-30T11:31:11.748Z,17.31
2018-08-30T11:32:47.077Z,17.19
2018-08-30T11:34:22.559Z,17.39
2018-08-30T11:35:57.752Z,17.49
2018-08-30T11:37:33.304Z,17.27
2018-08-30T11:39:09.253Z,17.03
2018-08-30T11:40:44.330Z,16.98
2018-08-30T11:42:19.487Z,16.91
2018-08-30T11:43:54.804Z,17.27
2018-08-30T11:45:30.086Z,17.17
2018-08-30T11:47:06.966Z,17.00
2018-08-30T11:48:43.476Z,17.23
2018-08-30T11:50:20.301Z,17.43
2018-08-30T11:51:57.035Z,17.71
2018-08-30T11:53:32.122Z,18.09
2018-08-30T11:55:08.645Z,17.84
2018-08-30T11:56:45.368Z,18.28
2018-08-30T11:58:22.144Z,18.42
2018-08-30T12:00:00.316Z,18.81
2018-08-30T12:01:40.261Z,18.80
2018-08-30T12:03:20.335Z,19.01
2018-08-30T12:04:58.895Z,18.88
2018-08-30T12:06:39.532Z,19.29
2018-08-30T12:08:17.194Z,18.29
2018-08-30T12:09:55.072Z,17.96
2018-08-30T12:11:32.196Z,18.28
2018-08-30T12:13:12.383Z,17.99
2018-08-30T12:14:50.166Z,17.91
2018-08-30T12:16:31.731Z,17.94
2018-08-30T12:18:11.920Z,17.60
2018-08-30T12:19:51.264Z,17.63
2018-08-30T12:21:33.425Z,17.47
2018-08-30T12:23:15.722Z,17.38
2018-08-30T12:24:56.512Z,18.01
2018-08-30T12:26:33.954Z,17.95
2018-08-30T12:28:11.332Z,18.06
2018-08-30T12:29:49.320Z,18.56
2018-08-30T12:31:27.702Z,18.76
2018-08-30T12:34:49.909Z,19.32
2018-08-30T12:36:28.961Z,18.95
2018-08-30T12:38:08.081Z,19.04
2018-08-30T12:39:46.154Z,19.10
2018-08-30T12:41:31.460Z,18.82
2018-08-30T12:44:51.743Z,19.22
2018-08-30T12:46:31.782Z,19.45
2018-08-30T12:48:15.635Z,19.84
2018-08-30T12:49:52.824Z,20.08
2018-08-30T12:51:32.833Z,19.50
2018-08-30T12:53:08.429Z,19.05
2018-08-30T12:54:43.779Z,17.97
2018-08-30T12:56:20.958Z,17.52
2018-08-30T12:57:58.100Z,17.75
2018-08-30T12:59:39.787Z,17.55
2018-08-30T13:01:18.558Z,17.59
2018-08-30T13:02:54.015Z,17.47
2018-08-30T13:04:31.486Z,17.44
2018-08-30T13:06:09.751Z,17.31
2018-08-30T13:07:47.116Z,17.30
2018-08-30T13:09:33.348Z,16.98
2018-08-30T13:11:16.072Z,17.10
2018-08-30T13:13:04.977Z,17.40
2018-08-30T13:14:46.825Z,17.29
2018-08-30T13:16:24.008Z,17.63
2018-08-30T13:17:59.504Z,17.81
2018-08-30T13:19:35.154Z,17.61
2018-08-30T13:21:12.952Z,17.54
2018-08-30T13:22:49.454Z,17.76
2018-08-30T13:24:27.077Z,18.13
2018-08-30T13:26:03.305Z,18.38
2018-08-30T13:27:40.710Z,18.49
2018-08-30T13:29:18.830Z,18.43
2018-08-30T13:31:12.718Z,18.44
2018-08-30T13:32:51.780Z,18.57
2018-08-30T13:34:36.474Z,18.76
2018-08-30T13:36:16.213Z,18.58
2018-08-30T13:37:54.331Z,18.80
2018-08-30T13:39:37.857Z,18.69
2018-08-30T13:41:14.645Z,18.55
2018-08-30T13:42:51.091Z,18.62
2018-08-30T13:44:30.504Z,18.81
2018-08-30T13:46:12.215Z,18.65
2018-08-30T13:47:56.460Z,18.79
2018-08-30T13:49:32.436Z,18.74
2018-08-30T13:51:10.163Z,18.79
2018-08-30T13:52:48.751Z,17.96
2018-08-30T13:54:28.607Z,17.88
2018-08-30T13:56:11.798Z,17.45
2018-08-30T13:57:52.760Z,17.24
2018-08-30T13:59:31.066Z,17.01
2018-08-30T14:01:08.922Z,16.81
2018-08-30T14:02:53.338Z,16.84
2018-08-30T14:04:46.530Z,16.69
2018-08-30T14:06:39.543Z,16.65
2018-08-30T14:08:30.257Z,16.84
2018-08-30T14:10:11.227Z,16.67
2018-08-30T14:11:49.060Z,17.02
2018-08-30T14:13:29.845Z,17.18
2018-08-30T14:15:10.101Z,17.10
2018-08-30T14:16:51.552Z,17.06
2018-08-30T14:18:28.613Z,17.02
2018-08-30T14:20:09.088Z,17.00
2018-08-30T14:21:46.750Z,17.16
2018-08-30T14:23:24.551Z,17.10
2018-08-30T14:25:02.659Z,17.50
2018-08-30T14:26:40.981Z,17.75
2018-08-30T14:28:17.230Z,17.96
2018-08-30T14:29:53.866Z,17.86
2018-08-30T14:31:34.722Z,17.38
2018-08-30T14:33:16.626Z,17.08
2018-08-30T14:34:56.591Z,16.96
2018-08-30T14:36:41.515Z,16.91
2018-08-30T14:38:20.546Z,16.63
2018-08-30T14:39:59.787Z,16.83
2018-08-30T14:41:36.973Z,17.07
2018-08-30T14:43:17.542Z,17.11
2018-08-30T14:44:58.465Z,16.94
2018-08-30T14:46:41.990Z,16.73
2018-08-30T14:48:21.765Z,16.58
2018-08-30T14:50:00.108Z,16.59
2018-08-30T14:52:46.288Z,16.61
2018-08-30T14:54:27.558Z,16.62
2018-08-30T14:56:03.689Z,16.42
2018-08-30T14:57:44.495Z,16.40
2018-08-30T14:59:25.467Z,16.33
2018-08-30T15:02:53.185Z,16.69
2018-08-30T15:04:29.790Z,17.00
2018-08-30T15:06:09.031Z,17.16
2018-08-30T15:07:45.661Z,17.29
2018-08-30T15:09:21.689Z,17.50
2018-08-30T15:11:01.428Z,17.66
2018-08-30T15:12:39.780Z,17.71
2018-08-30T15:14:20.596Z,17.50
2018-08-30T15:16:01.407Z,17.77
2018-08-30T15:17:41.645Z,17.69
2018-08-30T15:19:19.163Z,17.73
2018-08-30T15:21:01.007Z,17.72
2018-08-30T15:22:36.400Z,17.95
2018-08-30T15:24:15.209Z,17.89
2018-08-30T15:25:52.495Z,17.79
2018-08-30T15:27:31.326Z,18.06
2018-08-30T15:29:16.100Z,18.14
2018-08-30T15:30:55.461Z,17.82
2018-08-30T15:32:37.462Z,17.45
2018-08-30T15:34:17.650Z,17.81
2018-08-30T15:35:56.797Z,17.91
2018-08-30T15:37:36.400Z,18.11
2018-08-30T15:39:17.034Z,17.95
2018-08-30T15:40:58.311Z,17.84
2018-08-30T15:42:44.746Z,17.47
2018-08-30T15:44:27.592Z,17.44
2018-08-30T15:46:07.892Z,17.56
2018-08-30T15:47:46.860Z,17.58
2018-08-30T15:49:28.341Z,17.19
2018-08-30T15:51:06.990Z,17.08
2018-08-30T15:53:02.356Z,17.05
2018-08-30T15:56:47.884Z,16.96
2018-08-30T15:58:25.618Z,16.76
2018-08-30T16:00:05.480Z,16.74
2018-08-30T16:01:42.867Z,16.88
2018-08-30T16:03:23.148Z,16.85
2018-08-30T16:05:01.835Z,16.94
2018-08-30T16:07:47.816Z,16.89
2018-08-30T16:09:24.401Z,16.59
2018-08-30T16:11:00.264Z,16.41
2018-08-30T16:12:38.588Z,16.38
2018-08-30T16:14:18.918Z,16.42
2018-08-30T16:15:57.926Z,16.37
2018-08-30T16:17:35.911Z,16.33
2018-08-30T16:19:14.212Z,16.40
2018-08-30T16:20:54.699Z,16.33
2018-08-30T16:22:45.213Z,16.33
2018-08-30T16:24:22.793Z,16.41
2018-08-30T16:26:00.739Z,16.33
2018-08-30T16:27:39.861Z,16.39
2018-08-30T16:29:16.042Z,16.31
2018-08-30T16:30:53.551Z,16.31
2018-08-30T16:32:34.127Z,16.41
2018-08-30T16:34:13.808Z,16.45
2018-08-30T16:35:52.964Z,16.33
2018-08-30T16:37:32.721Z,16.27
2018-08-30T16:39:14.371Z,16.13
2018-08-30T16:40:55.348Z,16.13
2018-08-30T16:42:37.543Z,16.16
2018-08-30T16:44:15.450Z,16.19
2018-08-30T16:45:58.459Z,16.21
2018-08-30T16:47:38.247Z,16.13
2018-08-30T16:49:23.990Z,16.04
2018-08-30T16:51:02.356Z,16.01
2018-08-30T16:52:41.626Z,16.05
2018-08-30T16:54:21.298Z,15.98
2018-08-30T16:55:59.595Z,15.96
2018-08-30T16:57:38.769Z,15.86
2018-08-30T16:59:20.740Z,15.87
2018-08-30T17:00:58.342Z,15.83
2018-08-30T17:02:36.240Z,15.82
2018-08-30T17:04:16.268Z,15.85
2018-08-30T17:05:58.494Z,15.81
2018-08-30T17:11:21.869Z,15.76
2018-08-30T17:13:03.183Z,15.68
2018-08-30T17:14:42.729Z,15.62
2018-08-30T17:16:19.872Z,15.58
2018-08-30T17:17:58.205Z,15.64
2018-08-30T17:19:39.295Z,15.65
2018-08-30T17:21:19.850Z,15.66
2018-08-30T17:23:03.483Z,15.63
2018-08-30T17:24:43.601Z,15.65
2018-08-30T17:26:20.904Z,15.60
2018-08-30T17:28:00.604Z,15.53
2018-08-30T17:29:46.528Z,15.51
2018-08-30T17:31:27.835Z,15.46
2018-08-30T17:33:10.560Z,15.42
2018-08-30T17:34:56.287Z,15.42
2018-08-30T17:36:33.345Z,15.39
2018-08-30T17:38:15.394Z,15.40
2018-08-30T17:39:54.363Z,15.29
2018-08-30T17:41:31.172Z,15.27
2018-08-30T17:43:10.644Z,15.20
2018-08-30T17:44:47.390Z,15.17
2018-08-30T17:46:26.791Z,15.16
2018-08-30T17:48:04.485Z,15.10
2018-08-30T17:49:44.744Z,15.08
2018-08-30T17:51:33.163Z,15.01
2018-08-30T17:55:12.151Z,14.84
2018-08-30T17:56:49.899Z,14.75
2018-08-30T17:58:25.444Z,14.64
2018-08-30T18:00:04.337Z,14.60
2018-08-30T18:01:42.656Z,14.51
2018-08-30T18:03:21.095Z,14.38
2018-08-30T18:05:01.609Z,14.32
2018-08-30T18:06:38.591Z,14.22
2018-08-30T18:08:19.324Z,14.25
2018-08-30T18:09:57.252Z,14.14
2018-08-30T18:11:40.333Z,14.06
2018-08-30T18:13:19.373Z,13.97
2018-08-30T18:16:39.308Z,13.83
2018-08-30T18:18:16.851Z,13.75
2018-08-30T18:19:51.953Z,13.65
2018-08-30T18:21:28.855Z,13.49
2018-08-30T18:23:07.447Z,13.44
2018-08-30T18:24:47.275Z,13.29
2018-08-30T18:26:23.994Z,13.21
2018-08-30T18:29:45.621Z,13.05
2018-08-30T18:31:23.792Z,12.96
2018-08-30T18:33:06.235Z,12.85
2018-08-30T18:34:43.388Z,12.69
2018-08-30T18:36:21.902Z,12.64
2018-08-30T18:38:03.243Z,12.62
2018-08-30T18:39:42.995Z,12.67
2018-08-30T18:41:21.415Z,12.59
2018-08-30T18:43:00.346Z,12.54
2018-08-30T18:44:40.699Z,12.54
2018-08-30T18:46:21.499Z,12.52
2018-08-30T18:48:01.825Z,12.53
2018-08-30T18:49:45.041Z,12.51
2018-08-30T19:17:04.520Z,12.02
2018-08-30T19:18:52.230Z,11.93
2018-08-30T19:20:28.547Z,11.88
2018-08-30T19:22:04.306Z,11.86
2018-08-30T19:23:40.671Z,11.91
2018-08-30T19:26:29.446Z,11.92
2018-08-30T19:28:09.364Z,12.00
2018-08-30T19:29:53.246Z,12.01
2018-08-30T19:31:34.379Z,12.06
2018-08-30T19:33:15.705Z,12.04
2018-08-30T19:34:55.271Z,12.09
2018-08-30T19:36:34.480Z,12.06
2018-08-30T19:38:13.739Z,12.06
2018-08-30T19:39:51.605Z,12.06
2018-08-30T19:41:33.084Z,12.11
2018-08-30T19:43:13.224Z,12.21
2018-08-30T19:44:52.773Z,12.17
2018-08-30T19:46:37.820Z,12.11
2018-08-30T19:48:17.275Z,12.05
2018-08-30T19:49:56.299Z,12.03
2018-08-30T19:51:34.741Z,11.98
2018-08-30T19:53:17.692Z,12.05
2018-08-30T19:54:55.673Z,12.00
2018-08-30T19:56:32.379Z,11.94
2018-08-30T19:58:11.881Z,11.88
2018-08-30T19:59:56.498Z,11.81
2018-08-30T20:01:35.803Z,11.77
2018-08-30T20:03:13.179Z,11.71
2018-08-30T20:06:36.521Z,11.60
2018-08-30T20:08:17.965Z,11.52
2018-08-30T20:09:57.535Z,11.45
2018-08-30T20:11:36.432Z,11.49
2018-08-30T20:13:14.052Z,11.47
2018-08-30T20:14:53.148Z,11.54
2018-08-30T20:16:33.184Z,11.59
2018-08-30T20:18:15.358Z,11.64
2018-08-30T20:19:57.867Z,11.65
2018-08-30T20:21:39.817Z,11.64
2018-08-30T20:23:18.297Z,11.65
2018-08-30T20:24:54.967Z,11.59
2018-08-30T20:26:36.734Z,11.59
2018-08-30T20:28:16.446Z,11.59
2018-08-30T20:29:59.498Z,11.55
2018-08-30T20:31:49.261Z,11.48
2018-08-30T20:33:27.615Z,11.44
2018-08-30T20:35:07.673Z,11.49
2018-08-30T20:36:45.257Z,11.44
2018-08-30T20:38:21.970Z,11.34
2018-08-30T20:39:57.976Z,11.41
2018-08-30T20:41:35.579Z,11.37
2018-08-30T20:43:13.108Z,11.26
2018-08-30T20:44:55.043Z,11.18
2018-08-30T20:46:32.307Z,11.05
2018-08-30T20:48:15.749Z,11.03
2018-08-30T20:49:57.663Z,10.94
2018-08-30T20:51:39.214Z,10.90
2018-08-30T20:53:21.192Z,10.83
2018-08-30T20:55:01.328Z,10.77
2018-08-30T20:56:38.968Z,10.75
2018-08-30T20:58:19.416Z,10.68
2018-08-30T20:59:58.563Z,10.67
2018-08-30T21:01:38.656Z,10.59
2018-08-30T21:03:23.391Z,10.55
2018-08-30T21:05:06.263Z,10.52
2018-08-30T21:06:44.540Z,10.51
2018-08-30T21:08:25.309Z,10.51
2018-08-30T21:10:04.091Z,10.47
2018-08-30T21:11:44.173Z,10.44
2018-08-30T21:13:27.993Z,10.46
2018-08-30T21:15:15.278Z,10.50
2018-08-30T21:16:57.163Z,10.46
2018-08-30T21:18:35.562Z,10.53
2018-08-30T21:20:13.932Z,10.55
2018-08-30T21:21:55.064Z,10.58
2018-08-30T21:23:31.865Z,10.55
2018-08-30T21:25:08.122Z,10.50
2018-08-30T21:26:47.091Z,10.43
2018-08-30T21:28:24.345Z,10.36
2018-08-30T21:30:01.241Z,10.29
2018-08-30T21:31:40.417Z,10.22
2018-08-30T21:34:19.105Z,10.16
2018-08-30T21:35:57.764Z,10.05
2018-08-30T21:37:33.715Z,10.00
2018-08-30T21:39:10.305Z,9.97
2018-08-30T21:40:47.282Z,10.00
2018-08-30T21:42:23.412Z,10.02
2018-08-30T21:44:00.024Z,9.94
2018-08-30T21:45:37.118Z,9.92
2018-08-30T21:47:13.452Z,9.88
2018-08-30T21:48:49.476Z,9.85
2018-08-30T21:50:24.961Z,9.83
2018-08-30T21:52:03.542Z,9.92
2018-08-30T21:53:39.984Z,10.00
2018-08-30T21:55:16.375Z,10.00
2018-08-30T21:56:53.235Z,10.14
2018-08-30T21:58:29.188Z,10.18
2018-08-30T22:00:08.692Z,10.12
2018-08-30T22:01:46.265Z,10.05
2018-08-30T22:03:22.567Z,10.01
2018-08-30T22:04:59.955Z,10.08
2018-08-30T22:06:37.044Z,9.97
2018-08-30T22:08:13.889Z,9.91
2018-08-30T22:09:49.307Z,9.84